< < Back
Terminal Aerodrome Forecast


Current Version              Previous Versions:   1  2  3  4  5  6  7  8  9  

Terminal Aerodrome Forecast

491
FTUS42 KMLB 020542 RRA
TAFMCO
TAF
KMCO 020542Z 0206/0306 13003KT P6SM FEW050 SCT120 BKN250
     FM021400 20005KT P6SM FEW030 SCT250
     FM022000 16007KT P6SM VCTS SCT035CB BKN100
     FM030000 15004KT P6SM SCT050 BKN120=



Latest METAR

361
SAUS70 KWBC 021400 RRA
MTRMCO
METAR KMCO 021353Z 21003KT 10SM FEW019 SCT250 29/24 A3010 RMK AO2 SLP191
T02890244


USA.gov is the U.S. government's official web portal to all federal, state and local government web resources and services.